createdAt,value
2019-02-06T00:00:26.258Z,99.90
2019-02-06T00:10:16.068Z,99.90
2019-02-06T00:20:17.363Z,99.90
2019-02-06T00:30:19.976Z,99.90
2019-02-06T00:40:21.321Z,99.90
2019-02-06T00:50:22.600Z,99.90
2019-02-06T01:00:23.865Z,99.90
2019-02-06T01:10:25.125Z,99.90
2019-02-06T01:20:26.437Z,99.90
2019-02-06T01:30:27.860Z,99.90
2019-02-06T01:40:29.146Z,99.90
2019-02-06T01:50:30.442Z,99.90
2019-02-06T02:00:31.849Z,99.90
2019-02-06T02:10:33.151Z,99.90
2019-02-06T02:20:34.443Z,99.90
2019-02-06T02:30:35.717Z,99.90
2019-02-06T02:40:37.004Z,99.90
2019-02-06T02:50:38.406Z,99.90
2019-02-06T03:00:39.669Z,99.90
2019-02-06T03:10:40.980Z,99.90
2019-02-06T03:20:42.234Z,99.90
2019-02-06T03:30:43.659Z,99.90
2019-02-06T03:40:44.886Z,99.90
2019-02-06T03:50:46.173Z,99.90
2019-02-06T04:00:47.450Z,99.90
2019-02-06T04:10:48.757Z,99.90
2019-02-06T04:20:50.037Z,99.90
2019-02-06T04:30:51.345Z,99.90
2019-02-06T04:40:52.806Z,99.90
2019-02-06T04:50:54.290Z,99.90
2019-02-06T05:00:55.801Z,99.90
2019-02-06T05:10:57.173Z,99.90
2019-02-06T05:20:58.559Z,99.90
2019-02-06T05:31:00.032Z,99.90
2019-02-06T05:41:01.449Z,99.90
2019-02-06T05:51:02.769Z,99.90
2019-02-06T06:01:04.131Z,99.90
2019-02-06T06:11:05.516Z,99.90
2019-02-06T06:21:07.004Z,99.90
2019-02-06T06:31:08.487Z,99.90
2019-02-06T06:41:09.906Z,99.90
2019-02-06T07:42:28.503Z,63.70
2019-02-06T07:52:29.817Z,63.70
2019-02-06T08:02:31.119Z,74.30
2019-02-06T08:12:32.400Z,69.50
2019-02-06T08:22:33.681Z,63.20
2019-02-06T08:32:37.826Z,57.10
2019-02-06T08:42:36.264Z,53.60
2019-02-06T08:52:37.551Z,57.70
2019-02-06T09:02:38.847Z,52.90
2019-02-06T09:12:40.149Z,44.80
2019-02-06T09:22:42.202Z,36.10
2019-02-06T09:32:43.455Z,36.10
2019-02-06T09:42:45.479Z,30.80
2019-02-06T09:52:46.755Z,30.80
2019-02-06T10:23:02.117Z,33.30
2019-02-06T10:33:04.258Z,38.70
2019-02-06T10:43:05.536Z,38.60
2019-02-06T10:53:07.557Z,45.30
2019-02-06T11:03:08.832Z,45.30
2019-02-06T11:23:23.094Z,42.10
2019-02-06T11:33:24.406Z,40.10
2019-02-06T11:43:25.870Z,46.60
2019-02-06T12:13:42.996Z,51.40
2019-02-06T12:23:44.387Z,50.90
2019-02-06T12:33:45.656Z,51.60
2019-02-06T12:43:46.924Z,52.60
2019-02-06T12:53:48.197Z,52.60
2019-02-06T13:03:54.913Z,52.20
2019-02-06T13:13:56.216Z,52.20
2019-02-06T13:23:58.233Z,52.70
2019-02-06T13:34:00.285Z,54.20
2019-02-06T13:44:01.541Z,54.20
2019-02-06T13:54:02.815Z,54.30
2019-02-06T14:04:04.109Z,53.90
2019-02-06T14:14:06.309Z,55.70
2019-02-06T14:24:07.604Z,55.70
2019-02-06T14:34:13.113Z,56.60
2019-02-06T14:44:14.473Z,57.90
2019-02-06T15:04:22.539Z,63.00
2019-02-06T15:14:23.801Z,64.80
2019-02-06T15:24:27.264Z,66.90
2019-02-06T15:34:28.769Z,69.80
2019-02-06T15:44:30.024Z,75.10
2019-02-06T16:14:48.213Z,99.90
2019-02-06T16:24:50.257Z,99.90
2019-02-06T16:34:51.538Z,99.90
2019-02-06T16:44:58.048Z,99.90
2019-02-06T16:55:00.174Z,99.90
2019-02-06T17:05:01.456Z,99.90
2019-02-06T17:15:06.945Z,99.90
2019-02-06T17:25:08.987Z,99.90
2019-02-06T17:35:10.246Z,99.90
2019-02-06T17:45:11.531Z,99.90
2019-02-06T17:55:12.821Z,99.90
2019-02-06T18:05:14.898Z,99.90
2019-02-06T18:15:16.180Z,99.90
2019-02-06T18:25:17.457Z,99.90
2019-02-06T18:35:19.625Z,99.90
2019-02-06T18:45:20.916Z,99.90
2019-02-06T18:55:22.281Z,99.90
2019-02-06T19:05:23.587Z,99.90
2019-02-06T19:15:24.886Z,99.90
2019-02-06T19:25:26.259Z,99.90
2019-02-06T19:35:28.611Z,99.90
2019-02-06T19:45:29.929Z,99.90
2019-02-06T19:55:31.279Z,99.90
2019-02-06T20:05:32.629Z,99.90
2019-02-06T20:15:33.977Z,99.90
2019-02-06T20:25:35.317Z,99.90
2019-02-06T20:35:36.890Z,99.90
2019-02-06T20:45:38.248Z,99.90
2019-02-06T20:55:39.602Z,99.90
2019-02-06T21:05:40.884Z,99.90
2019-02-06T21:15:42.222Z,99.90
2019-02-06T21:25:43.497Z,99.90
2019-02-06T21:35:44.781Z,99.90
2019-02-06T21:45:46.157Z,99.90
2019-02-06T21:55:47.605Z,99.90
2019-02-06T22:05:48.897Z,99.90
2019-02-06T22:15:50.212Z,99.90
2019-02-06T22:25:51.590Z,99.90
2019-02-06T22:35:52.907Z,99.90
2019-02-06T22:45:54.281Z,99.90
2019-02-06T22:55:55.678Z,99.90
2019-02-06T23:05:56.962Z,99.90
2019-02-06T23:15:58.341Z,99.90
2019-02-06T23:25:59.665Z,99.90
2019-02-06T23:36:00.948Z,99.90
2019-02-06T23:46:02.440Z,99.90
2019-02-06T23:56:03.714Z,99.90
